createdAt,value
2022-10-06T00:00:48.079Z,101030.50
2022-10-06T00:01:50.252Z,101024.13
2022-10-06T00:02:52.458Z,101028.41
2022-10-06T00:03:54.882Z,101032.88
2022-10-06T00:04:57.118Z,101031.81
2022-10-06T00:06:01.158Z,101028.97
2022-10-06T00:07:03.549Z,101029.97
2022-10-06T00:08:09.989Z,101038.97
2022-10-06T00:09:12.525Z,101036.09
2022-10-06T00:10:14.976Z,101036.97
2022-10-06T00:11:17.457Z,101040.78
2022-10-06T00:12:19.716Z,101035.31
2022-10-06T00:13:23.317Z,101035.50
2022-10-06T00:14:25.547Z,101032.00
2022-10-06T00:15:31.063Z,101036.34
2022-10-06T00:16:33.262Z,101029.75
2022-10-06T00:17:35.394Z,101035.56
2022-10-06T00:18:37.767Z,101032.94
2022-10-06T00:19:40.066Z,101040.09
2022-10-06T00:20:43.520Z,101034.69
2022-10-06T00:21:45.920Z,101035.72
2022-10-06T00:22:49.947Z,101040.38
2022-10-06T00:23:52.076Z,101034.19
2022-10-06T00:24:55.321Z,101037.47
2022-10-06T00:25:58.417Z,101030.38
2022-10-06T00:27:01.152Z,101034.69
2022-10-06T00:28:03.583Z,101038.19
2022-10-06T00:29:05.759Z,101040.09
2022-10-06T00:30:14.741Z,101040.31
2022-10-06T00:31:19.406Z,101037.63
2022-10-06T00:32:21.941Z,101037.63
2022-10-06T00:33:24.385Z,101040.25
2022-10-06T00:34:26.765Z,101036.03
2022-10-06T00:35:34.939Z,101037.00
2022-10-06T00:36:37.251Z,101043.19
2022-10-06T00:37:39.402Z,101050.16
2022-10-06T00:38:41.630Z,101038.47
2022-10-06T00:39:46.822Z,101043.25
2022-10-06T00:40:50.792Z,101044.19
2022-10-06T00:41:52.996Z,101051.28
2022-10-06T00:42:58.119Z,101046.69
2022-10-06T00:44:00.511Z,101043.34
2022-10-06T00:45:06.327Z,101047.78
2022-10-06T00:46:13.808Z,101042.28
2022-10-06T00:47:16.900Z,101038.13
2022-10-06T00:48:23.627Z,101041.69
2022-10-06T00:49:35.453Z,101040.97
2022-10-06T00:50:38.408Z,101043.50
2022-10-06T00:51:45.823Z,101042.72
2022-10-06T00:52:48.365Z,101049.06
2022-10-06T00:53:50.919Z,101048.13
2022-10-06T00:54:53.200Z,101046.53
2022-10-06T00:55:55.693Z,101048.34
2022-10-06T00:56:57.920Z,101056.28
2022-10-06T00:58:01.285Z,101043.84
2022-10-06T00:59:03.497Z,101046.53
2022-10-06T01:00:07.173Z,101045.81
2022-10-06T01:01:12.221Z,101055.56
2022-10-06T01:02:22.321Z,101050.88
2022-10-06T01:03:31.343Z,101055.09
2022-10-06T01:04:37.317Z,101049.59
2022-10-06T01:05:44.004Z,101048.00
2022-10-06T01:06:51.803Z,101051.69
2022-10-06T01:07:54.513Z,101054.19
2022-10-06T01:08:56.860Z,101056.09
2022-10-06T01:09:59.398Z,101056.09
2022-10-06T01:11:02.230Z,101054.53
2022-10-06T01:12:08.111Z,101060.72
2022-10-06T01:13:12.016Z,101057.00
2022-10-06T01:14:15.166Z,101057.94
2022-10-06T01:15:18.280Z,101059.69
2022-10-06T01:16:25.103Z,101060.03
2022-10-06T01:17:36.426Z,101061.03
2022-10-06T01:18:42.765Z,101059.38
2022-10-06T01:19:54.639Z,101059.22
2022-10-06T01:21:11.918Z,101063.72
2022-10-06T01:22:16.562Z,101064.69
2022-10-06T01:23:19.500Z,101070.09
2022-10-06T01:24:22.165Z,101065.63
2022-10-06T01:25:25.009Z,101070.16
2022-10-06T01:26:28.967Z,101071.16
2022-10-06T01:27:33.037Z,101069.56
2022-10-06T01:28:35.560Z,101073.06
2022-10-06T01:29:38.201Z,101065.97
2022-10-06T01:30:53.825Z,101073.28
2022-10-06T01:31:59.267Z,101077.09
2022-10-06T01:33:01.789Z,101077.97
2022-10-06T01:34:04.103Z,101078.78
2022-10-06T01:35:07.812Z,101085.91
2022-10-06T01:36:10.184Z,101077.66
2022-10-06T01:37:12.572Z,101082.16
2022-10-06T01:38:15.548Z,101085.59
2022-10-06T01:39:17.746Z,101083.69
2022-10-06T01:40:20.391Z,101080.13
2022-10-06T01:41:24.947Z,101087.84
2022-10-06T01:42:27.151Z,101088.66
2022-10-06T01:43:30.103Z,101091.28
2022-10-06T01:44:33.073Z,101086.81
2022-10-06T01:45:35.375Z,101089.38
2022-10-06T01:46:37.957Z,101084.78
2022-10-06T01:47:40.185Z,101090.97
2022-10-06T01:48:42.630Z,101092.94
2022-10-06T01:49:46.327Z,101098.47
2022-10-06T01:50:48.888Z,101103.56
2022-10-06T01:51:51.167Z,101097.22
2022-10-06T01:52:53.387Z,101101.50
2022-10-06T01:53:55.556Z,101100.94
2022-10-06T01:54:58.224Z,101107.56
2022-10-06T01:56:00.615Z,101099.75
2022-10-06T01:57:06.530Z,101109.75
2022-10-06T01:58:10.110Z,101103.25
2022-10-06T01:59:12.383Z,101103.41
2022-10-06T02:00:15.258Z,101112.22
2022-10-06T02:01:18.359Z,101109.59
2022-10-06T02:02:20.944Z,101109.22
2022-10-06T02:03:23.137Z,101120.81
2022-10-06T02:04:25.331Z,101111.13
2022-10-06T02:05:28.053Z,101114.53
2022-10-06T02:06:30.512Z,101119.28
2022-10-06T02:07:37.771Z,101122.00
2022-10-06T02:08:40.111Z,101120.81
2022-10-06T02:09:42.673Z,101123.50
2022-10-06T02:10:44.876Z,101127.47
2022-10-06T02:11:54.020Z,101124.06
2022-10-06T02:12:57.314Z,101118.31
2022-10-06T02:14:01.622Z,101125.63
2022-10-06T02:15:04.753Z,101125.31
2022-10-06T02:16:08.183Z,101131.34
2022-10-06T02:17:10.465Z,101128.09
2022-10-06T02:18:12.871Z,101124.63
2022-10-06T02:19:15.225Z,101126.28
2022-10-06T02:20:17.622Z,101124.81
2022-10-06T02:21:22.126Z,101126.53
2022-10-06T02:22:24.406Z,101126.72
2022-10-06T02:23:27.062Z,101126.19
2022-10-06T02:24:30.160Z,101122.13
2022-10-06T02:25:32.282Z,101124.03
2022-10-06T02:26:34.689Z,101114.13
2022-10-06T02:27:37.529Z,101114.75
2022-10-06T02:28:40.813Z,101115.94
2022-10-06T02:29:46.474Z,101125.00
2022-10-06T02:30:49.991Z,101123.47
2022-10-06T02:31:52.541Z,101127.16
2022-10-06T02:32:55.714Z,101119.19
2022-10-06T02:33:58.903Z,101129.13
2022-10-06T02:35:03.832Z,101126.13
2022-10-06T02:36:08.101Z,101125.38
2022-10-06T02:37:13.385Z,101122.13
2022-10-06T02:38:15.545Z,101115.31
2022-10-06T02:39:17.832Z,101119.78
2022-10-06T02:40:21.146Z,101120.38
2022-10-06T02:41:23.426Z,101122.22
2022-10-06T02:42:26.101Z,101118.34
2022-10-06T02:43:31.403Z,101128.81
2022-10-06T02:44:35.999Z,101126.72
2022-10-06T02:45:38.518Z,101133.16
2022-10-06T02:46:41.801Z,101136.50
2022-10-06T02:47:44.014Z,101138.72
2022-10-06T02:48:47.022Z,101130.47
2022-10-06T02:49:49.674Z,101133.25
2022-10-06T02:51:03.197Z,101142.88
2022-10-06T02:52:05.524Z,101137.41
2022-10-06T02:53:08.577Z,101136.09
2022-10-06T02:54:10.959Z,101143.28
2022-10-06T02:55:13.619Z,101150.06
2022-10-06T02:56:22.196Z,101150.78
2022-10-06T02:57:24.409Z,101148.09
2022-10-06T02:58:30.309Z,101154.69
2022-10-06T02:59:37.175Z,101157.44
2022-10-06T03:00:40.680Z,101151.19
2022-10-06T03:01:42.965Z,101137.97
2022-10-06T03:02:50.028Z,101140.38
2022-10-06T03:03:53.193Z,101137.94
2022-10-06T03:04:55.440Z,101130.78
2022-10-06T03:06:05.999Z,101143.00
2022-10-06T03:07:09.580Z,101138.47
2022-10-06T03:08:13.111Z,101148.47
2022-10-06T03:09:15.727Z,101140.03
2022-10-06T03:10:19.151Z,101142.75
2022-10-06T03:11:24.580Z,101151.97
2022-10-06T03:12:26.818Z,101153.28
2022-10-06T03:13:30.293Z,101153.47
2022-10-06T03:14:33.257Z,101161.41
2022-10-06T03:15:35.475Z,101158.38
2022-10-06T03:16:40.310Z,101161.66
2022-10-06T03:17:50.566Z,101169.66
2022-10-06T03:18:55.033Z,101169.97
2022-10-06T03:19:57.990Z,101178.25
2022-10-06T03:21:01.573Z,101169.28
2022-10-06T03:22:05.523Z,101171.25
2022-10-06T03:23:19.102Z,101168.19
2022-10-06T03:24:21.261Z,101169.38
2022-10-06T03:25:27.474Z,101179.53
2022-10-06T03:26:33.384Z,101176.16
2022-10-06T03:27:35.734Z,101175.09
2022-10-06T03:28:40.912Z,101178.59
2022-10-06T03:29:43.151Z,101177.66
2022-10-06T03:30:45.263Z,101174.38
2022-10-06T03:31:47.602Z,101183.78
2022-10-06T03:32:51.898Z,101185.69
2022-10-06T03:33:56.880Z,101188.66
2022-10-06T03:35:01.570Z,101190.81
2022-10-06T03:36:11.146Z,101189.31
2022-10-06T03:37:13.462Z,101196.53
2022-10-06T03:38:15.616Z,101200.09
2022-10-06T03:39:18.084Z,101195.81
2022-10-06T03:40:20.388Z,101198.38
2022-10-06T03:41:25.521Z,101201.28
2022-10-06T03:42:27.715Z,101200.34
2022-10-06T03:43:30.086Z,101199.47
2022-10-06T03:44:34.953Z,101194.00
2022-10-06T03:45:37.811Z,101201.28
2022-10-06T03:46:40.156Z,101202.97
2022-10-06T03:47:43.123Z,101198.38
2022-10-06T03:48:46.467Z,101209.09
2022-10-06T03:49:48.598Z,101201.88
2022-10-06T03:50:59.788Z,101204.38
2022-10-06T03:52:02.752Z,101200.91
2022-10-06T03:53:09.507Z,101194.94
2022-10-06T03:54:12.548Z,101196.06
2022-10-06T03:55:17.543Z,101200.81
2022-10-06T03:56:28.790Z,101196.13
2022-10-06T03:57:30.851Z,101203.34
2022-10-06T03:58:36.126Z,101199.69
2022-10-06T03:59:38.341Z,101199.78
2022-10-06T04:00:43.628Z,101204.88
2022-10-06T04:01:48.265Z,101203.13
2022-10-06T04:02:55.232Z,101202.25
2022-10-06T04:03:59.596Z,101210.03
2022-10-06T04:05:01.749Z,101207.25
2022-10-06T04:06:07.882Z,101213.59
2022-10-06T04:07:10.251Z,101218.13
2022-10-06T04:08:14.304Z,101227.03
2022-10-06T04:09:16.827Z,101226.97
2022-10-06T04:10:19.703Z,101224.19
2022-10-06T04:11:24.522Z,101226.78
2022-10-06T04:12:27.004Z,101232.91
2022-10-06T04:13:29.220Z,101226.88
2022-10-06T04:14:31.401Z,101224.19
2022-10-06T04:15:33.609Z,101235.69
2022-10-06T04:16:38.320Z,101234.09
2022-10-06T04:17:41.626Z,101227.19
2022-10-06T04:18:45.453Z,101232.84
2022-10-06T04:19:47.737Z,101231.25
2022-10-06T04:20:49.965Z,101232.19
2022-10-06T04:21:52.399Z,101235.59
2022-10-06T04:22:57.476Z,101240.56
2022-10-06T04:24:00.833Z,101244.50
2022-10-06T04:25:03.643Z,101239.50
2022-10-06T04:26:10.588Z,101239.41
2022-10-06T04:27:28.199Z,101232.28
2022-10-06T04:28:38.467Z,101236.66
2022-10-06T04:29:40.820Z,101237.53
2022-10-06T04:30:43.005Z,101243.00
2022-10-06T04:31:46.110Z,101244.19
2022-10-06T04:32:55.218Z,101252.41
2022-10-06T04:33:59.766Z,101251.34
2022-10-06T04:35:03.430Z,101244.34
2022-10-06T04:36:07.916Z,101253.44
2022-10-06T04:37:10.867Z,101258.66
2022-10-06T04:38:15.355Z,101260.81
2022-10-06T04:39:17.803Z,101252.72
2022-10-06T04:40:21.658Z,101250.16
2022-10-06T04:41:29.430Z,101263.59
2022-10-06T04:42:35.040Z,101256.44
2022-10-06T04:43:39.642Z,101264.78
2022-10-06T04:44:42.390Z,101263.13
2022-10-06T04:45:45.392Z,101263.91
2022-10-06T04:46:48.193Z,101262.16
2022-10-06T04:47:51.478Z,101262.81
2022-10-06T04:48:55.070Z,101264.63
2022-10-06T04:50:00.293Z,101266.38
2022-10-06T04:51:05.389Z,101258.19
2022-10-06T04:52:07.844Z,101253.28
2022-10-06T04:53:12.285Z,101263.94
2022-10-06T04:54:14.648Z,101259.00
2022-10-06T04:55:16.828Z,101264.41
2022-10-06T04:56:32.325Z,101261.72
2022-10-06T04:57:37.654Z,101269.38
2022-10-06T04:58:42.444Z,101266.38
2022-10-06T05:00:08.860Z,101268.09
2022-10-06T05:01:21.668Z,101280.34
2022-10-06T05:02:24.230Z,101278.13
2022-10-06T05:03:30.159Z,101280.75
2022-10-06T05:04:33.116Z,101281.81
2022-10-06T05:05:35.419Z,101286.88
2022-10-06T05:06:41.081Z,101286.22
2022-10-06T05:07:45.211Z,101293.28
2022-10-06T05:08:58.984Z,101292.16
2022-10-06T05:10:01.843Z,101299.47
2022-10-06T05:11:10.132Z,101296.69
2022-10-06T05:12:14.920Z,101307.44
2022-10-06T05:13:17.104Z,101301.25
2022-10-06T05:14:19.602Z,101303.75
2022-10-06T05:15:24.276Z,101307.25
2022-10-06T05:16:29.804Z,101306.31
2022-10-06T05:17:32.540Z,101317.22
2022-10-06T05:18:35.985Z,101318.00
2022-10-06T05:19:39.317Z,101324.28
2022-10-06T05:20:42.458Z,101324.34
2022-10-06T05:21:44.826Z,101328.56
2022-10-06T05:22:55.824Z,101330.31
2022-10-06T05:23:58.324Z,101335.72
2022-10-06T05:25:00.634Z,101330.66
2022-10-06T05:26:04.461Z,101344.00
2022-10-06T05:27:06.788Z,101345.84
2022-10-06T05:28:09.894Z,101350.84
2022-10-06T05:29:12.216Z,101347.16
2022-10-06T05:30:15.255Z,101348.94
2022-10-06T05:31:27.755Z,101353.34
2022-10-06T05:32:35.167Z,101354.94
2022-10-06T05:33:39.501Z,101363.78
2022-10-06T05:34:41.929Z,101367.19
2022-10-06T05:35:52.486Z,101364.50
2022-10-06T05:36:54.707Z,101365.53
2022-10-06T05:37:56.892Z,101374.78
2022-10-06T05:38:59.491Z,101365.63
2022-10-06T05:40:03.403Z,101381.72
2022-10-06T05:41:17.032Z,101383.38
2022-10-06T05:42:20.107Z,101385.03
2022-10-06T05:43:22.383Z,101388.06
2022-10-06T05:44:24.695Z,101384.44
2022-10-06T05:45:27.055Z,101397.38
2022-10-06T05:46:31.957Z,101406.13
2022-10-06T05:47:34.939Z,101404.31
2022-10-06T05:48:38.033Z,101407.78
2022-10-06T05:49:40.280Z,101416.72
2022-10-06T05:50:42.858Z,101407.25
2022-10-06T05:51:45.126Z,101430.81
2022-10-06T05:52:55.307Z,101434.28
2022-10-06T05:53:58.069Z,101453.84
2022-10-06T05:55:00.725Z,101453.00
2022-10-06T05:56:10.147Z,101454.97
2022-10-06T05:57:12.412Z,101454.66
2022-10-06T05:58:18.416Z,101464.25
2022-10-06T05:59:20.943Z,101449.72
2022-10-06T06:00:23.473Z,101446.81
2022-10-06T06:01:29.157Z,101447.63
2022-10-06T06:02:31.560Z,101445.72
2022-10-06T06:03:33.978Z,101449.84
2022-10-06T06:04:36.202Z,101448.63
2022-10-06T06:05:42.387Z,101458.56
2022-10-06T06:06:48.901Z,101460.44
2022-10-06T06:08:01.352Z,101462.13
2022-10-06T06:09:18.785Z,101471.09
2022-10-06T06:10:23.171Z,101477.59
2022-10-06T06:11:27.757Z,101477.72
2022-10-06T06:12:31.671Z,101481.41
2022-10-06T06:13:49.608Z,101483.13
2022-10-06T06:15:10.249Z,101484.72
2022-10-06T06:16:24.876Z,101490.06
2022-10-06T06:17:27.299Z,101492.78
2022-10-06T06:18:32.567Z,101496.06
2022-10-06T06:19:35.051Z,101502.34
2022-10-06T06:20:37.303Z,101504.81
2022-10-06T06:21:40.041Z,101512.44
2022-10-06T06:22:42.547Z,101513.22
2022-10-06T06:23:47.112Z,101523.06
2022-10-06T06:24:50.589Z,101521.34
2022-10-06T06:26:02.462Z,101515.69
2022-10-06T06:27:05.559Z,101518.84
2022-10-06T06:28:08.143Z,101523.38
2022-10-06T06:29:10.328Z,101527.88
2022-10-06T06:30:18.588Z,101533.09
2022-10-06T06:31:27.157Z,101534.91
2022-10-06T06:32:29.795Z,101548.50
2022-10-06T06:33:37.870Z,101543.09
2022-10-06T06:34:41.544Z,101556.66
2022-10-06T06:35:44.453Z,101552.13
2022-10-06T06:36:53.565Z,101564.72
2022-10-06T06:37:55.950Z,101562.00
2022-10-06T06:38:59.015Z,101568.56
2022-10-06T06:40:01.935Z,101567.75
2022-10-06T06:41:16.756Z,101576.78
2022-10-06T06:42:19.198Z,101581.44
2022-10-06T06:43:24.228Z,101580.06
2022-10-06T06:44:48.149Z,101580.06
2022-10-06T06:46:04.928Z,101579.59
2022-10-06T06:47:29.807Z,101583.91
2022-10-06T06:48:35.948Z,101578.56
2022-10-06T06:49:38.743Z,101585.28
2022-10-06T06:50:44.094Z,101585.22
2022-10-06T06:51:49.983Z,101582.44
2022-10-06T06:52:55.112Z,101589.53
2022-10-06T06:53:59.467Z,101594.50
2022-10-06T06:55:01.955Z,101595.06
2022-10-06T06:56:05.279Z,101601.91
2022-10-06T06:57:09.899Z,101601.84
2022-10-06T06:58:12.782Z,101600.16
2022-10-06T06:59:15.425Z,101605.47
2022-10-06T07:00:20.144Z,101607.03
2022-10-06T07:01:23.113Z,101598.00
2022-10-06T07:02:28.322Z,101593.75
2022-10-06T07:03:55.988Z,101590.06
2022-10-06T07:04:53.397Z,101587.78
2022-10-06T07:06:08.958Z,101583.31
2022-10-06T07:07:12.213Z,101594.84
2022-10-06T07:08:16.441Z,101593.88
2022-10-06T07:09:20.951Z,101602.53
2022-10-06T07:10:23.993Z,101601.44
2022-10-06T07:11:30.133Z,101608.25
2022-10-06T07:12:32.606Z,101616.00
2022-10-06T07:13:35.890Z,101619.50
2022-10-06T07:14:58.040Z,101631.06
2022-10-06T07:16:19.549Z,101624.91
2022-10-06T07:17:40.376Z,101633.69
2022-10-06T07:19:01.270Z,101637.28
2022-10-06T07:20:24.335Z,101636.09
2022-10-06T07:21:45.180Z,101642.44
2022-10-06T07:23:05.965Z,101649.56
2022-10-06T07:24:28.258Z,101662.84
2022-10-06T07:25:32.230Z,101654.81
2022-10-06T07:26:38.722Z,101661.38
2022-10-06T07:27:47.385Z,101650.84
2022-10-06T07:28:52.175Z,101654.53
2022-10-06T07:29:56.688Z,101652.59
2022-10-06T07:31:01.174Z,101659.00
2022-10-06T07:32:05.574Z,101649.22
2022-10-06T07:33:08.642Z,101657.66
2022-10-06T07:34:12.585Z,101659.34
2022-10-06T07:35:17.185Z,101661.97
2022-10-06T07:36:21.345Z,101662.19
2022-10-06T07:37:24.252Z,101668.09
2022-10-06T07:38:27.600Z,101665.03
2022-10-06T07:39:32.140Z,101665.91
2022-10-06T07:40:35.705Z,101674.03
2022-10-06T07:41:37.926Z,101674.38
2022-10-06T07:42:52.376Z,101676.72
2022-10-06T07:44:21.509Z,101685.41
2022-10-06T07:45:38.772Z,101693.00
2022-10-06T07:46:43.810Z,101685.28
2022-10-06T07:47:58.950Z,101689.72
2022-10-06T07:49:01.312Z,101693.69
2022-10-06T07:50:05.779Z,101693.56
2022-10-06T07:51:15.337Z,101698.75
2022-10-06T07:52:19.498Z,101698.38
2022-10-06T07:53:21.900Z,101692.75
2022-10-06T07:54:29.271Z,101701.31
2022-10-06T07:55:52.112Z,101699.41
2022-10-06T07:56:57.008Z,101700.19
2022-10-06T07:57:59.336Z,101697.19
2022-10-06T07:59:01.719Z,101707.72
2022-10-06T08:00:05.704Z,101706.41
2022-10-06T08:01:16.209Z,101710.13
2022-10-06T08:02:19.886Z,101720.22
2022-10-06T08:03:22.396Z,101717.13
2022-10-06T08:04:24.750Z,101720.44
2022-10-06T08:05:26.954Z,101729.78
2022-10-06T08:06:29.116Z,101718.72
2022-10-06T08:07:31.469Z,101734.34
2022-10-06T08:08:37.915Z,101731.28
2022-10-06T08:09:40.242Z,101733.09
2022-10-06T08:10:43.470Z,101735.00
2022-10-06T08:11:47.333Z,101743.63
2022-10-06T08:12:49.703Z,101745.38
2022-10-06T08:13:52.279Z,101748.22
2022-10-06T08:14:54.817Z,101751.72
2022-10-06T08:16:07.214Z,101748.44
2022-10-06T08:17:09.419Z,101745.81
2022-10-06T08:18:27.157Z,101758.69
2022-10-06T08:19:33.758Z,101750.88
2022-10-06T08:20:36.028Z,101746.69
2022-10-06T08:21:39.589Z,101761.97
2022-10-06T08:22:41.786Z,101760.06
2022-10-06T08:23:46.229Z,101767.31
2022-10-06T08:25:05.287Z,101758.66
2022-10-06T08:26:10.586Z,101772.44
2022-10-06T08:27:12.719Z,101770.25
2022-10-06T08:28:15.248Z,101774.09
2022-10-06T08:29:17.479Z,101782.94
2022-10-06T08:30:20.049Z,101773.94
2022-10-06T08:31:23.428Z,101782.50
2022-10-06T08:32:25.693Z,101775.66
2022-10-06T08:33:28.027Z,101779.13
2022-10-06T08:34:30.310Z,101782.56
2022-10-06T08:35:33.573Z,101786.22
2022-10-06T08:36:36.015Z,101791.78
2022-10-06T08:37:38.411Z,101792.06
2022-10-06T08:38:41.364Z,101791.03
2022-10-06T08:39:43.561Z,101794.53
2022-10-06T08:40:47.074Z,101794.31
2022-10-06T08:41:52.115Z,101796.84
2022-10-06T08:42:58.170Z,101799.91
2022-10-06T08:44:16.619Z,101792.69
2022-10-06T08:45:28.774Z,101797.53
2022-10-06T08:46:39.809Z,101795.31
2022-10-06T08:47:47.435Z,101813.00
2022-10-06T08:48:52.041Z,101803.94
2022-10-06T08:49:55.476Z,101803.00
2022-10-06T08:51:09.833Z,101810.41
2022-10-06T08:52:34.518Z,101805.00
2022-10-06T08:53:56.557Z,101806.50
2022-10-06T08:55:17.539Z,101813.16
2022-10-06T08:56:35.430Z,101814.09
2022-10-06T08:57:48.672Z,101814.22
2022-10-06T08:59:09.807Z,101820.19
2022-10-06T09:00:19.608Z,101817.78
2022-10-06T09:01:28.857Z,101814.22
2022-10-06T09:02:39.467Z,101811.72
2022-10-06T09:03:47.386Z,101823.75
2022-10-06T09:04:50.943Z,101821.97
2022-10-06T09:05:57.051Z,101822.03
2022-10-06T09:07:15.439Z,101821.88
2022-10-06T09:08:29.984Z,101826.28
2022-10-06T09:09:47.328Z,101826.88
2022-10-06T09:11:20.442Z,101823.31
2022-10-06T09:12:27.441Z,101827.97
2022-10-06T09:14:21.383Z,101836.16
2022-10-06T09:15:33.990Z,101832.53
2022-10-06T09:16:41.265Z,101832.38
2022-10-06T09:17:54.244Z,101831.34
2022-10-06T09:19:13.647Z,101834.28
2022-10-06T09:20:36.731Z,101836.16
2022-10-06T09:21:52.355Z,101837.25
2022-10-06T09:22:56.771Z,101836.75
2022-10-06T09:24:06.006Z,101840.59
2022-10-06T09:25:22.386Z,101845.91
2022-10-06T09:26:31.331Z,101842.16
2022-10-06T09:27:34.135Z,101841.34
2022-10-06T09:28:37.559Z,101841.81
2022-10-06T09:29:39.825Z,101843.56
2022-10-06T09:30:44.869Z,101845.03
2022-10-06T09:31:51.191Z,101851.53
2022-10-06T09:33:02.722Z,101849.97
2022-10-06T09:34:34.905Z,101852.53
2022-10-06T09:36:09.496Z,101858.66
2022-10-06T09:37:13.459Z,101847.91
2022-10-06T09:38:15.649Z,101854.00
2022-10-06T09:39:29.027Z,101859.53
2022-10-06T09:40:39.031Z,101859.47
2022-10-06T09:41:45.713Z,101864.44
2022-10-06T09:42:48.180Z,101860.66
2022-10-06T09:43:57.496Z,101865.09
2022-10-06T09:45:06.809Z,101866.97
2022-10-06T09:46:21.314Z,101868.31
2022-10-06T09:47:31.913Z,101882.25
2022-10-06T09:48:34.292Z,101866.97
2022-10-06T09:49:36.443Z,101868.78
2022-10-06T09:50:38.751Z,101872.66
2022-10-06T09:51:40.948Z,101872.00
2022-10-06T09:53:05.165Z,101873.97
2022-10-06T09:54:14.248Z,101877.75
2022-10-06T09:55:19.113Z,101879.84
2022-10-06T09:56:22.086Z,101884.19
2022-10-06T09:57:26.909Z,101877.16
2022-10-06T09:58:37.780Z,101884.03
2022-10-06T09:59:47.633Z,101888.25
2022-10-06T10:00:56.512Z,101894.91
2022-10-06T10:02:00.048Z,101894.44
2022-10-06T10:03:04.203Z,101898.50
2022-10-06T10:04:20.432Z,101895.28
2022-10-06T10:05:25.160Z,101889.66
2022-10-06T10:06:29.916Z,101897.06
2022-10-06T10:07:33.278Z,101895.94
2022-10-06T10:08:36.173Z,101897.34
2022-10-06T10:09:38.486Z,101895.38
2022-10-06T10:10:41.264Z,101903.50
2022-10-06T10:12:02.347Z,101908.31
2022-10-06T10:13:24.781Z,101910.91
2022-10-06T10:14:27.026Z,101910.63
2022-10-06T10:15:38.281Z,101917.13
2022-10-06T10:16:40.606Z,101912.84
2022-10-06T10:17:50.379Z,101919.59
2022-10-06T10:18:53.188Z,101903.97
2022-10-06T10:19:56.004Z,101911.09
2022-10-06T10:21:01.213Z,101904.66
2022-10-06T10:22:04.004Z,101903.56
2022-10-06T10:23:30.097Z,101911.25
2022-10-06T10:25:01.994Z,101907.91
2022-10-06T10:26:08.068Z,101908.81
2022-10-06T10:27:22.902Z,101915.06
2022-10-06T10:28:56.222Z,101925.53
2022-10-06T10:30:10.445Z,101930.09
2022-10-06T10:31:31.328Z,101925.28
2022-10-06T10:32:43.075Z,101924.44
2022-10-06T10:34:12.899Z,101927.75
2022-10-06T10:35:29.552Z,101927.28
2022-10-06T10:36:51.045Z,101923.69
2022-10-06T10:38:00.011Z,101932.41
2022-10-06T10:39:07.136Z,101930.53
2022-10-06T10:40:33.565Z,101923.78
2022-10-06T10:41:46.346Z,101927.16
2022-10-06T10:43:02.849Z,101921.22
2022-10-06T10:44:24.845Z,101921.91
2022-10-06T10:45:35.527Z,101919.09
2022-10-06T10:46:45.466Z,101916.38
2022-10-06T10:47:49.313Z,101925.81
2022-10-06T10:48:51.593Z,101922.75
2022-10-06T10:50:11.744Z,101927.56
2022-10-06T10:51:27.605Z,101929.03
2022-10-06T10:52:34.486Z,101927.53
2022-10-06T10:53:58.100Z,101930.19
2022-10-06T10:55:43.513Z,101937.88
2022-10-06T10:56:49.184Z,101933.44
2022-10-06T10:57:54.310Z,101927.03
2022-10-06T10:59:07.142Z,101927.22
2022-10-06T11:00:19.788Z,101922.78
2022-10-06T11:01:57.525Z,101930.56
2022-10-06T11:03:01.569Z,101920.31
2022-10-06T11:04:04.061Z,101926.13
2022-10-06T11:05:28.925Z,101932.06
2022-10-06T11:06:59.621Z,101934.09
2022-10-06T11:08:26.182Z,101934.88
2022-10-06T11:09:39.322Z,101932.34
2022-10-06T11:10:49.614Z,101933.66
2022-10-06T11:12:02.282Z,101933.53
2022-10-06T11:13:14.792Z,101921.81
2022-10-06T11:14:38.619Z,101934.47
2022-10-06T11:16:21.932Z,101922.88
2022-10-06T11:17:40.069Z,101921.88
2022-10-06T11:18:51.146Z,101919.84
2022-10-06T11:20:11.510Z,101923.19
2022-10-06T11:21:24.032Z,101920.09
2022-10-06T11:22:49.605Z,101927.78
2022-10-06T11:23:57.959Z,101932.78
2022-10-06T11:25:22.883Z,101925.09
2022-10-06T11:26:27.990Z,101938.09
2022-10-06T11:27:41.953Z,101931.31
2022-10-06T11:28:54.013Z,101932.34
2022-10-06T11:30:15.146Z,101931.00
2022-10-06T11:31:22.753Z,101935.81
2022-10-06T11:32:28.046Z,101930.44
2022-10-06T11:33:47.105Z,101931.72
2022-10-06T11:34:51.032Z,101924.63
2022-10-06T11:35:53.737Z,101923.03
2022-10-06T11:37:26.012Z,101934.81
2022-10-06T11:38:56.534Z,101930.59
2022-10-06T11:40:20.198Z,101935.56
2022-10-06T11:42:17.637Z,101927.84
2022-10-06T11:43:27.361Z,101932.63
2022-10-06T11:44:39.251Z,101931.03
2022-10-06T11:46:13.645Z,101934.97
2022-10-06T11:47:36.322Z,101936.53
2022-10-06T11:48:38.863Z,101938.84
2022-10-06T11:49:52.619Z,101933.53
2022-10-06T11:50:56.256Z,101938.41
2022-10-06T11:52:08.559Z,101938.00
2022-10-06T11:53:35.004Z,101933.16
2022-10-06T11:54:40.145Z,101933.03
2022-10-06T11:55:42.373Z,101933.97
2022-10-06T11:56:44.529Z,101929.66
2022-10-06T11:58:23.538Z,101931.56
2022-10-06T11:59:31.461Z,101925.34
2022-10-06T12:00:33.739Z,101928.59
2022-10-06T12:01:39.109Z,101932.13
2022-10-06T12:02:43.270Z,101932.28
2022-10-06T12:03:47.781Z,101932.63
2022-10-06T12:06:45.898Z,101937.72
2022-10-06T12:07:57.584Z,101938.13
2022-10-06T12:08:59.634Z,101943.03
2022-10-06T12:10:29.989Z,101947.91
2022-10-06T12:11:42.954Z,101932.44
2022-10-06T12:13:40.008Z,101938.97
2022-10-06T12:17:11.466Z,101941.69
2022-10-06T12:18:27.836Z,101944.50
2022-10-06T12:20:01.395Z,101953.53
2022-10-06T12:21:23.419Z,101949.66
2022-10-06T12:22:47.289Z,101950.09
2022-10-06T12:24:05.088Z,101947.44
2022-10-06T12:25:25.080Z,101951.22
2022-10-06T12:26:27.390Z,101949.94
2022-10-06T12:27:53.750Z,101953.81
2022-10-06T12:29:19.579Z,101950.22
2022-10-06T12:30:28.626Z,101952.34
2022-10-06T12:32:00.482Z,101951.66
2022-10-06T12:33:05.699Z,101952.31
2022-10-06T12:34:42.245Z,101952.00
2022-10-06T12:35:45.518Z,101953.03
2022-10-06T12:36:48.300Z,101955.91
2022-10-06T12:37:54.499Z,101947.34
2022-10-06T12:39:05.939Z,101952.63
2022-10-06T12:40:48.322Z,101947.94
2022-10-06T12:42:00.849Z,101950.53
2022-10-06T12:43:17.456Z,101950.22
2022-10-06T12:44:30.555Z,101953.41
2022-10-06T12:45:33.520Z,101957.16
2022-10-06T12:46:43.655Z,101943.41
2022-10-06T12:47:47.368Z,101949.75
2022-10-06T12:49:00.341Z,101943.59
2022-10-06T12:50:06.235Z,101957.47
2022-10-06T12:51:28.120Z,101944.69
2022-10-06T12:52:51.551Z,101944.38
2022-10-06T12:54:01.082Z,101947.03
2022-10-06T12:55:17.733Z,101947.22
2022-10-06T12:56:40.286Z,101952.66